Time;durP1;ratioP1;P1;durP2;ratioP2;P2;SDS_P1;SDS_P2;PMS_P1;PMS_P2;Temp;Humidity;BMP_temperature;BMP_pressure;BME280_temperature;BME280_humidity;BME280_pressure;Samples;Min_cycle;Max_cycle;Signal;HPM_P1;HPM_P2
2023/10/10 00:01:44;;;;;;;30.27;20.70;;;14.80;99.90;;;-141.84;100.00;19080.22;5039487;28;20283;-63
2023/10/10 00:04:17;;;;;;;24.85;18.83;;;14.80;99.90;;;-141.84;100.00;19118.84;5024648;28;20337;-64
2023/10/10 00:06:49;;;;;;;24.23;19.05;;;14.80;99.90;;;-141.84;100.00;19104.59;5022238;28;20237;-64
2023/10/10 00:09:18;;;;;;;23.73;18.35;;;14.80;99.90;;;-141.84;100.00;19092.41;5039409;28;20237;-63
2023/10/10 00:11:51;;;;;;;27.33;18.77;;;14.80;99.90;;;-141.84;100.00;19098.50;5048627;28;20201;-62
2023/10/10 00:14:19;;;;;;;22.45;17.60;;;14.80;99.90;;;-141.84;100.00;19092.41;5059870;28;20564;-63
2023/10/10 00:16:55;;;;;;;21.17;16.25;;;14.80;99.90;;;-141.84;100.00;19120.88;5032543;28;20550;-63
2023/10/10 00:19:29;;;;;;;19.90;16.15;;;14.80;99.90;;;-141.84;100.00;19096.47;5039122;28;20221;-62
2023/10/10 00:22:01;;;;;;;18.77;15.43;;;14.80;99.90;;;-141.84;100.00;19110.72;5038783;28;20225;-63
2023/10/10 00:24:31;;;;;;;21.45;16.17;;;14.80;99.90;;;-141.84;100.00;19112.75;5039005;28;20222;-63
2023/10/10 00:27:06;;;;;;;19.98;15.02;;;14.80;99.90;;;-141.84;100.00;19126.97;5030463;28;20267;-63
2023/10/10 00:29:35;;;;;;;18.88;14.57;;;14.80;99.90;;;-141.84;100.00;19126.97;5038762;28;20240;-63
2023/10/10 00:32:13;;;;;;;19.13;14.55;;;14.80;99.90;;;-141.84;100.00;19104.59;5039258;28;20204;-64
2023/10/10 00:34:43;;;;;;;18.58;15.38;;;14.80;99.90;;;-141.84;100.00;19110.72;5036642;28;20228;-63
2023/10/10 00:37:13;;;;;;;17.55;13.77;;;14.80;99.90;;;-141.84;100.00;19149.31;5048725;28;20322;-63
2023/10/10 00:39:47;;;;;;;16.92;13.93;;;14.80;99.90;;;-141.84;100.00;19141.19;5058445;28;20708;-62
2023/10/10 00:42:19;;;;;;;16.90;13.52;;;14.80;99.90;;;-141.84;100.00;19135.09;5038606;28;20316;-63
2023/10/10 00:44:49;;;;;;;18.60;13.70;;;14.80;99.90;;;-141.84;100.00;19143.22;5017921;28;20293;-63
2023/10/10 00:47:25;;;;;;;14.15;12.52;;;14.80;99.90;;;-141.84;100.00;19133.06;5025556;28;20272;-64
2023/10/10 00:49:54;;;;;;;14.95;12.18;;;14.70;99.90;;;-141.84;100.00;19139.16;5025104;28;20342;-63
2023/10/10 00:52:23;;;;;;;14.77;11.95;;;14.80;99.90;;;-141.84;100.00;19155.41;5024946;28;20230;-63
2023/10/10 00:54:52;;;;;;;12.55;11.20;;;14.70;99.90;;;-141.84;100.00;19137.13;5017338;28;20237;-63
2023/10/10 00:57:21;;;;;;;15.27;12.73;;;14.70;99.90;;;-141.84;100.00;19153.38;5025031;28;20229;-64
2023/10/10 00:59:54;;;;;;;16.00;11.48;;;14.70;99.90;;;-141.84;100.00;19145.25;5018015;28;20225;-64
2023/10/10 01:02:25;;;;;;;15.15;11.68;;;14.60;99.90;;;-141.84;100.00;19133.06;5025156;28;20248;-63
2023/10/10 01:04:57;;;;;;;16.10;11.60;;;14.60;99.90;;;-141.84;100.00;19153.38;5017243;28;20317;-62
2023/10/10 01:07:26;;;;;;;12.88;10.52;;;14.60;99.90;;;-141.84;100.00;19120.88;5025052;28;20284;-63
2023/10/10 01:09:58;;;;;;;12.48;10.20;;;14.60;99.90;;;-141.84;100.00;19133.06;5024667;28;20792;-63
2023/10/10 01:12:29;;;;;;;11.88;9.38;;;14.50;99.90;;;-141.84;100.00;19159.47;5032630;28;20655;-58
2023/10/10 01:15:08;;;;;;;12.38;9.93;;;14.50;99.90;;;-141.84;100.00;19141.19;5032927;28;20598;-58
2023/10/10 01:17:38;;;;;;;13.73;10.55;;;14.60;99.90;;;-141.84;100.00;19145.25;5024697;28;20206;-59
2023/10/10 01:20:17;;;;;;;11.63;9.85;;;14.60;99.90;;;-141.84;100.00;19139.16;5024612;28;20256;-58
2023/10/10 01:22:51;;;;;;;11.60;9.52;;;14.60;99.90;;;-141.84;100.00;19157.44;5016721;28;20233;-57
2023/10/10 01:28:13;;;;;;;12.45;8.95;;;14.60;99.90;;;-141.84;100.00;19147.28;5022842;28;20234;-58
2023/10/10 01:30:56;;;;;;;11.57;9.02;;;14.60;99.90;;;-141.84;100.00;19171.66;5018845;28;20230;-58
2023/10/10 01:33:35;;;;;;;11.68;9.35;;;14.60;99.90;;;-141.84;100.00;19175.72;5024953;28;20284;-58
2023/10/10 01:36:11;;;;;;;14.15;9.00;;;14.60;99.90;;;-141.84;100.00;19145.25;5024493;28;20229;-58
2023/10/10 01:39:28;;;;;;;12.80;8.77;;;14.60;99.90;;;-141.84;100.00;19143.22;5024149;28;20210;-58
2023/10/10 01:41:58;;;;;;;11.10;8.38;;;14.60;99.90;;;-141.84;100.00;19114.78;4999396;28;20230;-58
2023/10/10 01:44:27;;;;;;;11.15;8.02;;;14.60;99.90;;;-141.84;100.00;19131.03;5024668;28;20399;-58
2023/10/10 01:46:56;;;;;;;12.30;9.05;;;14.60;99.90;;;-141.84;100.00;19139.16;5017012;28;20296;-58
2023/10/10 01:49:29;;;;;;;10.73;8.20;;;14.60;99.90;;;-141.84;100.00;19165.56;5023793;28;20673;-58
2023/10/10 01:52:00;;;;;;;11.65;7.93;;;14.60;99.90;;;-141.84;100.00;19110.72;5023055;28;20234;-58
2023/10/10 01:54:34;;;;;;;10.15;8.00;;;14.50;99.90;;;-141.84;100.00;19139.16;5023470;28;20272;-59
2023/10/10 01:57:07;;;;;;;9.30;8.10;;;14.40;99.90;;;-141.84;100.00;19114.78;4998054;28;20356;-57
2023/10/10 01:59:38;;;;;;;8.55;7.60;;;14.30;99.90;;;-141.84;100.00;19108.69;5019384;28;20286;-58
2023/10/10 02:02:11;;;;;;;9.43;8.00;;;14.20;99.90;;;-141.84;100.00;19102.56;5024570;28;20218;-59
2023/10/10 02:04:39;;;;;;;13.27;8.75;;;14.10;99.90;;;-141.84;100.00;19096.47;5023841;28;20230;-58
2023/10/10 02:07:13;;;;;;;10.27;8.68;;;14.10;99.90;;;-141.84;100.00;19126.97;5016273;28;20226;-58
2023/10/10 02:09:44;;;;;;;10.82;8.13;;;14.10;99.90;;;-141.84;100.00;19114.78;5023737;28;20325;-60
2023/10/10 02:12:16;;;;;;;10.50;8.43;;;14.20;99.90;;;-141.84;100.00;19124.94;5009823;28;20301;-59
2023/10/10 02:14:45;;;;;;;12.60;9.52;;;14.20;99.90;;;-141.84;100.00;19090.38;5000411;28;20211;-59
2023/10/10 02:17:26;;;;;;;9.93;8.25;;;14.20;99.90;;;-141.84;100.00;19118.84;5004476;28;20235;-58
2023/10/10 02:19:57;;;;;;;11.68;9.10;;;14.30;99.90;;;-141.84;100.00;19153.38;5003740;28;20226;-59
2023/10/10 02:22:47;;;;;;;10.20;8.45;;;14.40;99.90;;;-141.84;100.00;19135.09;5003579;28;20231;-58
2023/10/10 02:25:37;;;;;;;11.88;8.88;;;14.30;99.90;;;-141.84;100.00;19153.38;5009855;28;20230;-58
2023/10/10 02:28:10;;;;;;;13.15;8.85;;;14.40;99.90;;;-141.84;100.00;19114.78;5022893;28;20284;-58
2023/10/10 02:30:38;;;;;;;11.48;8.93;;;14.40;99.90;;;-141.84;100.00;19104.59;5023058;28;20254;-59
2023/10/10 02:33:24;;;;;;;12.95;9.15;;;14.40;99.90;;;-141.84;100.00;19112.75;5015412;28;20410;-57
2023/10/10 02:35:57;;;;;;;11.43;8.40;;;14.40;99.90;;;-141.84;100.00;19106.66;5023835;28;20712;-58
2023/10/10 02:38:34;;;;;;;12.73;9.38;;;14.40;99.90;;;-141.84;100.00;19116.81;5003938;28;20210;-60
2023/10/10 02:46:42;;;;;;;13.02;9.35;;;14.40;99.90;;;-141.84;100.00;19084.28;5022580;28;20276;-58
2023/10/10 02:49:22;;;;;;;12.70;9.32;;;14.40;99.90;;;-141.84;100.00;19104.59;5019778;28;20237;-58
2023/10/10 02:51:55;;;;;;;11.40;9.23;;;14.40;99.90;;;-141.84;100.00;19106.66;5029201;28;20236;-58
2023/10/10 02:54:32;;;;;;;13.68;9.80;;;14.40;99.90;;;-141.84;100.00;19122.91;5042689;28;20782;-59
2023/10/10 02:59:52;;;;;;;11.27;9.07;;;14.40;99.90;;;-141.84;100.00;19147.28;5042465;28;20300;-58
2023/10/10 03:02:23;;;;;;;12.38;10.38;;;14.40;99.90;;;-141.84;100.00;19141.19;5042907;28;20582;-63
2023/10/10 03:05:14;;;;;;;13.65;10.20;;;14.40;99.90;;;-141.84;100.00;19139.16;5034687;28;20233;-59
2023/10/10 03:07:44;;;;;;;13.23;9.43;;;14.40;99.90;;;-141.84;100.00;19137.13;5043123;28;20229;-58
2023/10/10 03:10:37;;;;;;;16.65;10.60;;;14.40;99.90;;;-141.84;100.00;19074.13;5042386;28;20316;-59
2023/10/10 03:13:13;;;;;;;10.20;8.43;;;14.40;99.90;;;-141.84;100.00;19126.97;5014606;28;20238;-62
2023/10/10 03:15:51;;;;;;;13.32;9.52;;;14.40;99.90;;;-141.84;100.00;19124.94;5022247;28;20240;-64
2023/10/10 03:18:20;;;;;;;13.63;9.32;;;14.40;99.90;;;-141.84;100.00;19086.31;5022387;28;20279;-64
2023/10/10 03:21:07;;;;;;;11.60;8.80;;;14.40;99.90;;;-141.84;100.00;19080.22;5014388;28;20682;-62
2023/10/10 03:23:43;;;;;;;10.38;8.55;;;14.40;99.90;;;-141.84;100.00;19124.94;5022657;28;20304;-62
2023/10/10 03:26:31;;;;;;;12.75;8.55;;;14.50;99.90;;;-141.84;100.00;19122.91;5036695;28;20243;-62
2023/10/10 03:29:04;;;;;;;13.18;9.00;;;14.40;99.90;;;-141.84;100.00;19122.91;5034111;28;20247;-63
2023/10/10 03:31:41;;;;;;;11.65;8.70;;;14.40;99.90;;;-141.84;100.00;19096.47;5041803;28;20243;-63
2023/10/10 03:34:29;;;;;;;10.82;8.98;;;14.40;99.90;;;-141.84;100.00;19104.59;5026630;28;20261;-64
2023/10/10 03:37:19;;;;;;;13.68;9.60;;;14.50;99.90;;;-141.84;100.00;19106.66;5014760;28;21006;-63
2023/10/10 03:39:53;;;;;;;14.45;9.20;;;14.40;99.90;;;-141.84;100.00;19104.59;5022406;28;20584;-63
2023/10/10 05:25:42;;;;;;;8.45;7.40;;;14.30;99.90;;;-141.84;100.00;19218.41;5024198;28;20226;-63
2023/10/10 05:28:10;;;;;;;11.77;7.78;;;14.30;99.90;;;-141.84;100.00;19183.84;5024348;28;20248;-64
2023/10/10 05:30:44;;;;;;;8.98;7.28;;;14.30;99.90;;;-141.84;100.00;19265.13;5024428;28;20260;-63
2023/10/10 05:33:13;;;;;;;7.38;6.60;;;14.30;99.90;;;-141.84;100.00;19222.47;5021796;28;20333;-63
2023/10/10 05:35:47;;;;;;;10.65;7.22;;;14.30;99.90;;;-141.84;100.00;19216.38;5024391;28;20210;-63
2023/10/10 05:38:17;;;;;;;8.25;7.03;;;14.40;99.90;;;-141.84;100.00;19257.00;5013356;28;20213;-63
2023/10/10 05:40:48;;;;;;;10.80;6.82;;;14.30;99.90;;;-141.84;100.00;19206.22;5020349;28;20789;-62
2023/10/10 05:43:17;;;;;;;7.70;6.40;;;14.30;99.90;;;-141.84;100.00;19267.16;5024022;28;20249;-64
2023/10/10 05:45:47;;;;;;;8.85;6.60;;;14.40;99.90;;;-141.84;100.00;19208.25;5024009;28;20317;-63
2023/10/10 05:48:15;;;;;;;10.85;6.78;;;14.40;99.90;;;-141.84;100.00;19246.84;5016984;28;20226;-64
2023/10/10 05:50:44;;;;;;;6.93;6.13;;;14.40;99.90;;;-141.84;100.00;19285.47;5004708;28;20675;-62
2023/10/10 05:53:12;;;;;;;8.30;6.57;;;14.70;99.90;;;-141.84;100.00;19281.41;5024020;28;20222;-63
2023/10/10 05:55:40;;;;;;;7.57;6.63;;;14.50;99.90;;;-141.84;100.00;19248.88;5005985;28;20500;-64
2023/10/10 05:58:12;;;;;;;6.28;5.65;;;14.50;99.90;;;-141.84;100.00;19311.88;5003999;28;20222;-63
2023/10/10 06:00:44;;;;;;;8.85;6.20;;;14.50;99.90;;;-141.84;100.00;19297.66;5013585;28;20229;-63
2023/10/10 06:03:13;;;;;;;8.15;5.85;;;14.50;99.90;;;-141.84;100.00;19307.81;5023758;28;20280;-63
2023/10/10 06:05:44;;;;;;;6.47;5.75;;;14.50;99.90;;;-141.84;100.00;19366.75;5023440;28;20943;-63
2023/10/10 06:08:13;;;;;;;6.45;5.85;;;14.50;99.90;;;-141.84;100.00;19348.47;5024076;28;20549;-62
2023/10/10 06:10:42;;;;;;;7.53;6.13;;;14.50;99.90;;;-141.84;100.00;19358.63;5022152;28;20232;-63
2023/10/10 06:13:12;;;;;;;10.23;6.43;;;14.50;99.90;;;-141.84;100.00;19389.09;5009998;28;20660;-63
2023/10/10 06:15:40;;;;;;;7.72;5.25;;;14.50;99.90;;;-141.84;100.00;19409.41;5004291;28;20277;-64
2023/10/10 06:18:15;;;;;;;6.57;5.50;;;14.50;99.90;;;-141.84;100.00;19405.34;5003743;28;20780;-64
2023/10/10 06:20:44;;;;;;;7.50;5.47;;;14.60;99.90;;;-141.84;100.00;19421.63;5014333;28;20665;-63
2023/10/10 06:23:16;;;;;;;6.28;4.65;;;14.60;99.90;;;-141.84;100.00;19435.84;5029147;28;20287;-63
2023/10/10 06:25:45;;;;;;;5.25;4.50;;;14.70;99.90;;;-141.84;100.00;19464.28;5022735;28;20234;-64
2023/10/10 06:28:25;;;;;;;5.95;5.03;;;14.70;99.90;;;-141.84;100.00;19454.13;5012585;28;20272;-63
2023/10/10 06:30:55;;;;;;;7.72;5.07;;;14.70;99.90;;;-141.84;100.00;19470.38;5015781;28;20781;-63
2023/10/10 06:33:27;;;;;;;5.88;5.28;;;14.80;99.90;;;-141.84;100.00;19484.59;5022641;28;20522;-63
2023/10/10 06:36:25;;;;;;;6.05;4.55;;;14.80;99.90;;;-141.84;100.00;19504.94;5022937;28;20221;-63
2023/10/10 06:39:18;;;;;;;5.10;4.60;;;14.80;99.90;;;-141.84;100.00;19543.53;4995105;28;20300;-65
2023/10/10 06:41:49;;;;;;;4.85;4.35;;;14.90;99.90;;;-141.84;100.00;19549.63;5012412;28;20216;-63
2023/10/10 06:44:39;;;;;;;6.03;4.65;;;14.90;99.90;;;-141.84;100.00;19635.00;5023763;28;20213;-64
2023/10/10 06:47:11;;;;;;;5.82;3.92;;;14.90;99.90;;;-141.84;100.00;19624.84;5015200;28;20230;-63
2023/10/10 06:52:34;;;;;;;4.57;4.05;;;15.00;99.90;;;-141.84;100.00;19643.13;5000347;28;20234;-63
2023/10/10 06:55:10;;;;;;;6.28;4.75;;;15.00;99.90;;;-141.84;100.00;19616.72;4996077;28;20268;-63
2023/10/10 06:57:40;;;;;;;6.22;5.00;;;15.10;99.90;;;-141.84;100.00;19622.81;5003764;28;20240;-63
2023/10/10 07:00:20;;;;;;;5.50;4.85;;;15.20;99.90;;;-141.84;100.00;19675.63;5017567;28;20298;-64
2023/10/10 07:02:53;;;;;;;6.55;4.57;;;15.30;99.90;;;-141.84;100.00;19663.44;5015390;28;20198;-63
2023/10/10 07:05:26;;;;;;;5.97;3.90;;;15.40;99.90;;;-141.84;100.00;19724.41;5023215;28;20210;-63
2023/10/10 07:07:58;;;;;;;4.40;3.80;;;15.40;99.90;;;-141.84;99.81;19712.22;5022132;28;20225;-62
2023/10/10 07:10:34;;;;;;;7.05;4.65;;;15.40;99.90;;;-141.84;99.58;19722.38;5022926;28;20712;-64
2023/10/10 07:13:10;;;;;;;5.15;3.83;;;15.50;99.90;;;-141.84;99.57;19726.44;5012910;28;20292;-58
2023/10/10 07:15:41;;;;;;;5.32;4.15;;;15.50;99.90;;;-141.84;99.04;19746.78;5021148;28;20234;-58
2023/10/10 07:18:14;;;;;;;3.83;3.53;;;15.60;99.90;;;-141.84;98.87;19763.03;5023376;28;20225;-62
2023/10/10 07:21:07;;;;;;;5.15;3.70;;;15.60;99.90;;;-141.84;98.57;19791.47;5020126;28;20237;-63
2023/10/10 07:23:41;;;;;;;5.82;4.07;;;15.60;99.90;;;-141.84;97.93;19811.81;5020372;28;20685;-69
2023/10/10 07:26:19;;;;;;;4.03;3.55;;;15.70;99.90;;;-141.84;96.28;19824.00;5021760;28;20792;-72
2023/10/10 07:28:52;;;;;;;3.78;3.35;;;15.80;99.90;;;-141.84;95.65;19840.25;5012654;28;20242;-70
2023/10/10 07:31:25;;;;;;;4.82;3.85;;;15.90;99.90;;;-141.84;94.58;19887.00;5022607;28;20228;-71
2023/10/10 07:34:03;;;;;;;3.22;3.00;;;16.00;99.90;;;-141.84;94.31;19856.53;5026175;28;20732;-67
2023/10/10 07:36:32;;;;;;;3.83;3.45;;;16.00;99.90;;;-141.84;93.59;19915.47;5041814;28;20745;-70
2023/10/10 07:41:57;;;;;;;4.35;3.30;;;16.20;99.90;;;-141.84;87.33;19984.56;4987585;28;20309;-72
2023/10/10 07:44:25;;;;;;;4.50;3.10;;;16.20;99.90;;;-141.84;88.13;19978.47;5007166;28;20280;-71
2023/10/10 07:49:50;;;;;;;5.70;3.30;;;16.30;99.90;;;-141.84;86.80;20021.16;5007124;28;20230;-71
2023/10/10 07:52:20;;;;;;;5.95;3.80;;;16.40;99.90;;;-141.84;86.47;20047.56;5025036;28;20268;-71
2023/10/10 07:54:53;;;;;;;6.93;3.55;;;16.40;99.90;;;-141.84;87.12;19984.56;5018574;28;20301;-69
2023/10/10 07:57:26;;;;;;;6.70;4.18;;;16.50;99.90;;;-141.84;86.82;20027.25;5033822;28;20241;-65
2023/10/10 07:59:57;;;;;;;3.75;3.38;;;16.70;99.90;;;-141.84;86.54;20122.78;5023567;28;20693;-68
2023/10/10 08:02:31;;;;;;;3.90;3.28;;;16.70;99.90;;;-141.84;85.69;20063.81;5026209;28;20206;-73
2023/10/10 08:05:09;;;;;;;5.22;2.80;;;16.70;99.90;;;-141.84;83.88;20078.06;5017177;28;20556;-70
2023/10/10 08:07:38;;;;;;;3.75;2.83;;;16.70;99.90;;;-141.84;82.79;20147.16;5025652;28;20238;-73
2023/10/10 08:10:28;;;;;;;8.65;2.70;;;16.80;99.90;;;-141.84;80.74;20179.69;5025743;28;20287;-70
2023/10/10 08:12:57;;;;;;;5.63;2.97;;;16.90;99.90;;;-141.84;82.79;20114.63;5018246;28;20709;-73
2023/10/10 08:15:26;;;;;;;5.10;2.90;;;16.90;99.90;;;-141.84;82.93;20102.44;5025196;28;20682;-72
2023/10/10 08:17:58;;;;;;;4.38;2.85;;;16.90;99.90;;;-141.84;83.66;20128.88;5025844;28;20256;-73
2023/10/10 08:20:34;;;;;;;3.65;2.58;;;17.00;99.90;;;-141.84;83.84;20155.28;5025955;28;20735;-69
2023/10/10 08:23:04;;;;;;;3.13;2.60;;;17.10;99.90;;;-141.84;84.23;20126.84;5017512;28;20229;-68
2023/10/10 08:25:33;;;;;;;4.82;2.72;;;17.10;99.90;;;-141.84;84.35;20147.16;5025192;28;20734;-69
2023/10/10 08:28:01;;;;;;;4.00;3.03;;;17.10;99.90;;;-141.84;81.86;20195.94;5025770;28;20229;-70
2023/10/10 08:30:30;;;;;;;3.80;2.47;;;17.20;99.90;;;-141.84;81.12;20236.59;5025173;28;20230;-68
2023/10/10 08:33:01;;;;;;;2.83;2.53;;;17.30;99.90;;;-141.84;81.37;20236.59;5017502;28;20234;-67
2023/10/10 08:35:30;;;;;;;3.70;2.13;;;17.40;99.90;;;-141.84;79.78;20273.19;5025589;28;20262;-64
2023/10/10 08:37:59;;;;;;;4.85;2.55;;;17.50;99.90;;;-141.84;80.42;20281.31;5025575;28;20230;-71
2023/10/10 08:40:35;;;;;;;3.67;2.72;;;17.50;99.90;;;-141.84;80.91;20271.16;5024753;28;20325;-71
2023/10/10 08:43:07;;;;;;;3.10;2.42;;;17.60;99.90;;;-141.84;80.67;20242.69;5017667;28;20263;-72
2023/10/10 08:45:43;;;;;;;3.70;2.90;;;17.60;99.90;;;-141.84;78.58;20309.75;5025626;28;20701;-65
2023/10/10 08:48:16;;;;;;;4.57;2.60;;;17.60;99.90;;;-141.84;77.97;20287.41;5014596;28;20237;-68
2023/10/10 08:50:45;;;;;;;2.65;2.40;;;17.70;99.90;;;-141.84;79.33;20301.63;5008796;28;20232;-70
2023/10/10 08:53:15;;;;;;;3.10;2.80;;;17.70;99.90;;;-141.84;80.18;20301.63;5023272;28;20653;-67
2023/10/10 08:55:48;;;;;;;6.22;2.97;;;17.70;99.90;;;-141.84;79.39;20297.56;5024461;28;20234;-67
2023/10/10 08:58:18;;;;;;;6.22;4.13;;;17.70;99.90;;;-141.84;78.23;20313.84;5024878;28;20218;-68
2023/10/10 09:00:46;;;;;;;5.43;3.80;;;17.50;99.90;;;-141.84;77.46;20352.44;5033280;28;20228;-66
2023/10/10 09:03:19;;;;;;;6.57;3.95;;;17.60;99.90;;;-141.84;77.76;20344.31;5044006;28;20729;-67
2023/10/10 09:05:48;;;;;;;8.65;4.30;;;17.70;99.90;;;-141.84;78.45;20342.28;5044750;28;20209;-68
2023/10/10 09:08:16;;;;;;;5.05;4.28;;;17.70;99.90;;;-141.84;77.87;20311.78;5044805;28;20210;-69
2023/10/10 09:10:46;;;;;;;6.65;4.30;;;17.60;99.90;;;-141.84;79.21;20289.44;5041139;28;20240;-68
2023/10/10 09:13:16;;;;;;;6.13;4.10;;;17.50;99.90;;;-141.84;79.39;20303.66;5044483;28;20320;-69
2023/10/10 09:15:56;;;;;;;4.88;4.10;;;17.50;99.90;;;-141.84;80.00;20297.56;5044547;28;20235;-74
2023/10/10 09:18:26;;;;;;;8.90;4.43;;;17.50;99.90;;;-141.84;79.75;20275.22;5045235;28;20228;-73
2023/10/10 09:21:18;;;;;;;4.50;3.50;;;17.50;99.90;;;-141.84;80.50;20307.72;5020821;28;20279;-73
2023/10/10 09:24:07;;;;;;;5.97;4.13;;;17.50;99.90;;;-141.84;80.84;20319.94;5024333;28;20203;-67
2023/10/10 09:26:37;;;;;;;6.72;5.30;;;17.70;99.90;;;-141.84;80.28;20346.34;5023738;28;20400;-66
2023/10/10 09:29:15;;;;;;;6.07;5.38;;;17.90;99.90;;;-141.84;79.40;20411.41;5016799;28;20240;-68
2023/10/10 09:31:45;;;;;;;5.65;4.95;;;18.00;99.90;;;-141.84;79.61;20397.16;5024360;28;20237;-66
2023/10/10 09:34:22;;;;;;;6.20;5.20;;;18.20;99.90;;;-141.84;78.19;20450.03;5023952;28;20775;-64
2023/10/10 09:36:56;;;;;;;6.35;5.75;;;18.30;99.90;;;-141.84;77.62;20513.03;5015997;28;20234;-63
2023/10/10 09:39:36;;;;;;;7.82;6.80;;;18.50;99.90;;;-141.84;75.78;20535.41;5023949;28;20233;-69
2023/10/10 09:42:26;;;;;;;7.40;6.22;;;18.70;99.90;;;-141.84;74.89;20612.63;5024094;28;20316;-69
2023/10/10 09:47:55;;;;;;;8.05;7.25;;;19.00;99.90;;;-141.84;72.73;20740.69;5008198;28;20620;-68
2023/10/10 09:50:29;;;;;;;8.85;7.55;;;19.30;99.90;;;-141.84;71.47;20795.59;5024032;28;20261;-68
2023/10/10 09:52:59;;;;;;;10.02;8.02;;;19.50;99.90;;;-141.84;70.77;20771.19;5015529;28;20226;-68
2023/10/10 09:55:42;;;;;;;13.50;10.30;;;19.60;99.90;;;-141.84;69.80;20791.53;5023482;28;20264;-65
2023/10/10 09:58:24;;;;;;;11.75;10.55;;;19.40;99.90;;;-141.84;71.74;20720.38;5016381;28;20218;-69
2023/10/10 10:00:54;;;;;;;12.10;9.70;;;19.30;99.90;;;-141.84;72.90;20639.06;5003891;28;20280;-70
2023/10/10 10:03:35;;;;;;;10.80;9.80;;;19.00;99.90;;;-141.84;74.78;20610.59;5021348;28;20217;-68
2023/10/10 10:06:35;;;;;;;12.70;11.38;;;18.90;99.90;;;-141.84;74.83;20567.91;5022289;28;20280;-69
2023/10/10 10:10:09;;;;;;;11.50;10.32;;;18.70;99.90;;;-141.84;76.35;20517.09;5015673;28;20222;-68
2023/10/10 10:12:59;;;;;;;14.35;12.95;;;18.50;99.90;;;-141.84;76.87;20511.00;4990468;28;20225;-69
2023/10/10 10:15:49;;;;;;;13.60;12.20;;;18.40;99.90;;;-141.84;77.36;20458.16;5020761;28;20245;-70
2023/10/10 10:18:28;;;;;;;17.17;15.48;;;18.30;99.90;;;-141.84;77.22;20435.78;5023246;28;20272;-68
2023/10/10 10:21:16;;;;;;;15.82;14.23;;;18.30;99.90;;;-141.84;77.69;20435.78;5014905;28;20308;-69
2023/10/10 10:23:56;;;;;;;17.38;15.50;;;18.20;99.90;;;-141.84;77.74;20427.66;5004642;28;20202;-68
2023/10/10 10:26:42;;;;;;;16.05;14.45;;;18.10;99.90;;;-141.84;78.78;20443.91;5020092;28;20697;-69
2023/10/10 10:29:16;;;;;;;17.70;15.90;;;18.20;99.90;;;-141.84;77.61;20474.41;5016874;28;20237;-67
2023/10/10 10:31:51;;;;;;;16.83;14.57;;;18.20;99.90;;;-141.84;75.87;20535.41;5022862;28;20649;-69
2023/10/10 10:34:31;;;;;;;16.17;14.52;;;18.40;99.90;;;-141.84;74.96;20606.53;5002607;28;20233;-69
2023/10/10 10:37:12;;;;;;;14.60;13.20;;;18.60;99.90;;;-141.84;74.09;20637.03;4995581;28;20301;-68
2023/10/10 10:40:22;;;;;;;15.05;13.60;;;18.70;99.90;;;-141.84;74.29;20569.94;5013515;28;20238;-69
2023/10/10 10:42:37;;;;;;;14.13;12.75;;;18.80;99.90;;;-141.84;73.83;20606.53;5022132;28;20226;-69
2023/10/10 10:45:35;;;;;;;13.25;11.95;;;18.80;99.90;;;-141.84;73.99;20624.84;5014779;28;20794;-69
2023/10/10 10:48:09;;;;;;;14.57;12.98;;;19.00;99.90;;;-141.84;73.31;20712.25;5025020;28;20467;-69
2023/10/10 10:50:45;;;;;;;13.23;11.93;;;19.20;99.90;;;-141.84;71.71;20793.56;5042243;28;20217;-67
2023/10/10 10:53:30;;;;;;;12.48;11.25;;;19.60;99.90;;;-141.84;70.73;20860.66;5024734;28;20202;-67
2023/10/10 10:59:12;;;;;;;12.68;11.48;;;19.90;99.90;;;-141.84;68.07;20964.31;5014360;28;20256;-67
2023/10/10 11:01:57;;;;;;;13.18;11.88;;;20.10;99.90;;;-141.84;69.88;20866.75;5022641;28;20217;-67
2023/10/10 11:04:42;;;;;;;12.80;11.45;;;20.00;99.90;;;-141.84;69.65;20866.75;5021846;28;20227;-68
2023/10/10 11:07:26;;;;;;;12.32;11.02;;;20.00;99.90;;;-141.84;69.81;20842.34;5019631;28;20234;-66
2023/10/10 11:10:06;;;;;;;13.10;11.07;;;19.90;99.90;;;-141.84;71.33;20854.53;5022172;28;20230;-67
2023/10/10 11:12:37;;;;;;;12.07;10.82;;;19.90;99.90;;;-141.84;72.07;20820.00;5002762;28;20250;-68
2023/10/10 11:15:10;;;;;;;12.13;10.70;;;19.80;99.90;;;-141.84;71.32;20840.31;4997526;28;20995;-65
2023/10/10 11:17:39;;;;;;;14.10;10.55;;;19.90;99.90;;;-141.84;70.25;20901.31;5021032;28;20701;-66
2023/10/10 11:23:08;;;;;;;12.60;10.35;;;20.10;99.90;;;-141.84;71.91;20862.69;5014503;28;20214;-67
2023/10/10 11:25:46;;;;;;;15.25;11.10;;;20.10;99.90;;;-141.84;71.21;20854.53;5014348;28;20499;-66
2023/10/10 11:28:23;;;;;;;13.13;11.73;;;19.90;99.90;;;-141.84;70.38;20862.69;5002585;28;20713;-66
2023/10/10 11:30:56;;;;;;;13.60;10.52;;;19.90;99.90;;;-141.84;70.85;20834.22;4995182;28;20722;-66
2023/10/10 11:33:48;;;;;;;14.13;10.85;;;19.80;99.90;;;-141.84;71.49;20830.16;5015466;28;20234;-68
2023/10/10 11:36:37;;;;;;;11.43;9.95;;;19.90;99.90;;;-141.84;71.12;20838.28;5021448;28;20234;-66
2023/10/10 11:39:30;;;;;;;10.73;9.50;;;19.90;99.90;;;-141.84;67.90;20925.69;5013816;28;20681;-67
2023/10/10 11:41:59;;;;;;;10.77;8.85;;;20.00;99.90;;;-141.84;66.58;21015.16;5021965;28;20708;-66
2023/10/10 11:44:33;;;;;;;9.57;8.35;;;20.30;99.90;;;-141.84;67.44;21002.94;5022341;28;20290;-67
2023/10/10 11:47:07;;;;;;;10.27;8.00;;;20.40;99.90;;;-141.84;67.08;21068.00;5013059;28;20232;-67
2023/10/10 11:49:41;;;;;;;9.13;8.23;;;20.50;99.90;;;-141.84;66.21;21074.09;5016710;28;20275;-67
2023/10/10 11:52:19;;;;;;;7.78;6.90;;;20.60;99.90;;;-141.84;65.58;21065.97;5002425;28;20325;-68
2023/10/10 11:54:47;;;;;;;10.68;8.75;;;20.50;99.90;;;-141.84;64.32;21137.13;4994724;28;20235;-65
2023/10/10 11:57:15;;;;;;;7.80;6.95;;;20.40;99.90;;;-141.84;66.00;21053.78;5014297;28;20599;-67
2023/10/10 11:59:46;;;;;;;9.85;7.90;;;20.40;99.90;;;-141.84;65.94;21041.56;5021410;28;20305;-67
2023/10/10 12:02:17;;;;;;;8.65;7.75;;;20.40;99.90;;;-141.84;66.13;21090.38;5022433;28;20271;-68
2023/10/10 12:04:45;;;;;;;9.75;8.15;;;20.40;99.90;;;-141.84;67.44;21029.38;5018260;28;20242;-71
2023/10/10 12:07:14;;;;;;;8.70;7.75;;;20.30;99.90;;;-141.84;65.92;21045.63;5021764;28;20791;-72
2023/10/10 12:09:45;;;;;;;9.50;7.25;;;20.20;99.90;;;-141.84;66.40;21029.38;5021690;28;20237;-73
2023/10/10 12:12:15;;;;;;;11.15;7.63;;;20.30;99.90;;;-141.84;65.17;21070.03;5021694;28;20630;-70
2023/10/10 12:14:45;;;;;;;8.82;6.82;;;20.30;99.90;;;-141.84;65.88;21072.06;5021613;28;20210;-71
2023/10/10 12:17:14;;;;;;;10.55;7.20;;;20.50;99.90;;;-141.84;65.53;21019.22;5020323;28;20202;-72
2023/10/10 12:19:43;;;;;;;7.95;6.93;;;20.30;99.90;;;-141.84;64.38;20966.34;5015257;28;20238;-72
2023/10/10 12:22:12;;;;;;;9.40;7.60;;;20.10;99.90;;;-141.84;64.24;21011.09;5011650;28;20246;-72
2023/10/10 12:24:41;;;;;;;10.68;7.47;;;20.00;99.90;;;-141.84;64.27;21086.31;5021402;28;20226;-66
2023/10/10 12:27:10;;;;;;;8.98;8.07;;;20.10;99.90;;;-141.84;64.84;21061.91;5015175;28;20265;-70
2023/10/10 12:29:41;;;;;;;10.13;8.40;;;20.10;99.90;;;-141.84;65.79;21021.25;5021319;28;20225;-71
2023/10/10 12:32:18;;;;;;;9.48;8.55;;;20.10;99.90;;;-141.84;64.63;21094.44;5020377;28;20686;-71
2023/10/10 12:34:47;;;;;;;9.38;8.15;;;20.30;99.90;;;-141.84;65.13;21124.94;5014109;28;20233;-73
2023/10/10 12:37:16;;;;;;;10.02;8.38;;;20.30;99.90;;;-141.84;64.97;21070.03;5022826;28;20567;-70
2023/10/10 12:39:45;;;;;;;10.80;9.48;;;20.30;99.90;;;-141.84;65.15;21035.47;5024545;28;20229;-69
2023/10/10 12:42:14;;;;;;;10.95;8.50;;;20.20;99.90;;;-141.84;66.35;21025.31;5024924;28;20312;-70